createdAt,value
2019-04-22T00:09:53.138Z,44.80
2019-04-22T00:20:03.099Z,45.20
2019-04-22T00:30:07.883Z,45.50
2019-04-22T00:40:07.293Z,45.50
2019-04-22T00:50:18.974Z,45.60
2019-04-22T01:00:27.749Z,45.90
2019-04-22T01:10:36.602Z,46.30
2019-04-22T01:30:32.698Z,47.00
2019-04-22T01:40:54.222Z,47.80
2019-04-22T01:50:59.473Z,48.60
2019-04-22T02:01:04.919Z,47.90
2019-04-22T02:11:23.704Z,48.10
2019-04-22T02:21:24.907Z,48.50
2019-04-22T02:31:56.051Z,48.60
2019-04-22T02:41:55.212Z,48.90
2019-04-22T02:51:43.207Z,49.10
2019-04-22T03:02:14.424Z,49.00
2019-04-22T03:12:13.477Z,48.90
2019-04-22T03:22:19.246Z,49.50
2019-04-22T03:42:23.312Z,50.20
2019-04-22T04:43:10.020Z,51.10
2019-04-22T04:53:20.563Z,51.10
2019-04-22T05:03:29.746Z,51.50
2019-04-22T05:13:33.002Z,51.70
2019-04-22T05:23:39.387Z,51.30
2019-04-22T05:33:46.247Z,51.00
2019-04-22T05:43:50.230Z,51.20
2019-04-22T05:53:59.494Z,51.10
2019-04-22T06:14:05.871Z,49.80
2019-04-22T06:24:23.530Z,49.40
2019-04-22T06:34:22.307Z,49.40
2019-04-22T06:44:29.742Z,49.20
2019-04-22T07:04:42.982Z,49.10
2019-04-22T07:14:50.376Z,48.80
2019-04-22T07:24:58.978Z,48.90
2019-04-22T07:35:08.535Z,48.10
2019-04-22T07:45:10.105Z,47.60
2019-04-22T07:55:13.441Z,47.20
2019-04-22T08:05:37.837Z,46.50
2019-04-22T08:15:33.427Z,45.90
2019-04-22T08:25:43.162Z,45.00
2019-04-22T08:36:07.120Z,44.10
2019-04-22T08:45:59.403Z,42.60
2019-04-22T08:56:21.574Z,41.60
2019-04-22T09:16:19.402Z,38.80
2019-04-22T09:26:30.282Z,36.40
2019-04-22T09:36:33.970Z,36.00
2019-04-22T09:46:41.312Z,32.80
2019-04-22T10:06:45.550Z,32.00
2019-04-22T10:16:59.982Z,30.10
2019-04-22T10:27:07.737Z,29.30
2019-04-22T10:36:53.338Z,29.30
2019-04-22T10:46:58.061Z,29.30
2019-04-22T10:57:03.441Z,26.50
2019-04-22T11:07:11.005Z,24.90
2019-04-22T11:17:17.583Z,24.10
2019-04-22T11:27:23.386Z,22.00
2019-04-22T11:37:30.072Z,21.80
2019-04-22T11:47:37.253Z,20.50
2019-04-22T11:57:43.083Z,18.60
2019-04-22T12:07:50.956Z,19.80
2019-04-22T12:17:57.346Z,19.50
2019-04-22T12:28:03.298Z,21.00
2019-04-22T12:38:12.360Z,20.90
2019-04-22T12:48:17.092Z,19.40
2019-04-22T12:58:23.436Z,20.00
2019-04-22T13:08:29.816Z,20.00
2019-04-22T13:18:42.019Z,19.70
2019-04-22T13:28:43.124Z,19.50
2019-04-22T13:38:49.187Z,19.70
2019-04-22T13:49:25.202Z,19.00
2019-04-22T13:59:10.195Z,18.90
2019-04-22T14:09:11.478Z,19.10
2019-04-22T14:19:18.414Z,18.90
2019-04-22T14:29:23.987Z,19.40
2019-04-22T14:39:30.326Z,19.90
2019-04-22T14:50:02.779Z,20.30
2019-04-22T14:59:43.984Z,20.80
2019-04-22T15:09:50.341Z,22.10
2019-04-22T15:20:03.846Z,21.80
2019-04-22T15:30:09.901Z,17.80
2019-04-22T15:40:16.561Z,15.40
2019-04-22T15:50:22.611Z,17.60
2019-04-22T16:00:38.385Z,19.60
2019-04-22T16:10:35.790Z,21.30
2019-04-22T16:20:41.207Z,23.80
2019-04-22T16:30:46.627Z,24.60
2019-04-22T16:40:52.747Z,25.00
2019-04-22T16:50:58.470Z,24.90
2019-04-22T17:01:07.015Z,25.80
2019-04-22T17:11:13.591Z,27.10
2019-04-22T17:21:19.605Z,27.70
2019-04-22T17:31:25.147Z,27.70
2019-04-22T17:41:50.665Z,27.90
2019-04-22T17:52:16.900Z,28.50
2019-04-22T18:02:22.160Z,29.40
2019-04-22T18:12:39.720Z,29.70
2019-04-22T18:22:29.455Z,30.20
2019-04-22T18:32:43.799Z,31.20
2019-04-22T18:42:58.803Z,32.20
2019-04-22T18:53:21.637Z,32.60
2019-04-22T19:03:15.643Z,32.70
2019-04-22T19:23:44.940Z,34.20
2019-04-22T19:33:53.832Z,35.00
2019-04-22T19:43:58.633Z,35.60
2019-04-22T19:54:01.420Z,35.70
2019-04-22T20:04:44.457Z,35.90
2019-04-22T20:14:48.110Z,36.10
2019-04-22T20:24:40.904Z,36.30
2019-04-22T20:34:57.582Z,36.60
2019-04-22T20:45:08.555Z,37.20
2019-04-22T20:55:08.247Z,38.30
2019-04-22T21:05:13.531Z,38.30
2019-04-22T21:15:32.554Z,39.20
2019-04-22T21:25:24.235Z,38.70
2019-04-22T21:35:55.021Z,38.40
2019-04-22T21:45:43.257Z,39.10
2019-04-22T21:56:10.082Z,39.70
2019-04-22T22:05:54.423Z,40.70
2019-04-22T22:16:05.193Z,41.50
2019-04-22T22:26:12.319Z,41.70
2019-04-22T22:36:20.263Z,42.10
2019-04-22T22:46:22.164Z,42.10
2019-04-22T22:56:42.640Z,41.70
2019-04-22T23:06:46.796Z,42.50
2019-04-22T23:16:40.445Z,43.30
2019-04-22T23:27:12.577Z,43.20
2019-04-22T23:37:25.213Z,43.50
2019-04-22T23:47:33.724Z,44.10
2019-04-22T23:57:46.946Z,44.20
